Time;durP1;ratioP1;P1;durP2;ratioP2;P2;SDS_P1;SDS_P2;PMS_P1;PMS_P2;Temp;Humidity;BMP_temperature;BMP_pressure;BME280_temperature;BME280_humidity;BME280_pressure;Samples;Min_cycle;Max_cycle;Signal;HPM_P1;HPM_P2
2021/03/30 00:00:56;;;;;;;25.88;16.30;;;12.20;99.90;;;;;;5074785;28;20204;-77
2021/03/30 00:03:24;;;;;;;30.02;19.23;;;12.10;99.90;;;;;;5062393;28;20220;-74
2021/03/30 00:05:51;;;;;;;26.45;16.58;;;12.00;99.90;;;;;;5063776;28;20669;-72
2021/03/30 00:08:18;;;;;;;24.55;17.85;;;11.90;99.90;;;;;;5056254;28;20208;-71
2021/03/30 00:10:48;;;;;;;25.35;17.52;;;11.90;99.90;;;;;;5062223;28;20215;-75
2021/03/30 00:13:15;;;;;;;28.52;18.15;;;11.80;99.90;;;;;;5071555;28;20223;-72
2021/03/30 00:15:41;;;;;;;22.45;16.63;;;11.90;99.90;;;;;;5070408;28;20234;-74
2021/03/30 00:18:08;;;;;;;24.92;16.30;;;11.80;99.90;;;;;;5064661;28;20227;-72
2021/03/30 00:20:35;;;;;;;21.00;15.50;;;11.80;99.90;;;;;;5070050;28;20215;-71
2021/03/30 00:23:08;;;;;;;21.67;15.73;;;11.80;99.90;;;;;;5076345;28;20219;-73
2021/03/30 00:25:34;;;;;;;26.35;15.00;;;11.80;99.90;;;;;;5074201;28;20231;-72
2021/03/30 00:28:01;;;;;;;23.50;15.57;;;11.80;99.90;;;;;;5064703;28;20203;-73
2021/03/30 00:30:28;;;;;;;19.80;15.10;;;11.80;99.90;;;;;;5076156;28;20598;-70
2021/03/30 00:32:55;;;;;;;26.30;15.13;;;11.80;99.90;;;;;;5080821;28;20218;-74
2021/03/30 00:35:21;;;;;;;24.55;15.57;;;11.70;99.90;;;;;;5067232;28;20310;-74
2021/03/30 00:37:49;;;;;;;18.90;14.30;;;11.50;99.90;;;;;;5076548;28;20199;-71
2021/03/30 00:40:18;;;;;;;24.52;15.63;;;11.40;99.90;;;;;;5070836;28;20207;-73
2021/03/30 00:42:45;;;;;;;21.55;15.25;;;11.30;99.90;;;;;;5068818;28;20533;-72
2021/03/30 00:45:13;;;;;;;20.63;14.55;;;11.20;99.90;;;;;;5072554;28;20222;-75
2021/03/30 00:47:45;;;;;;;18.35;14.63;;;11.20;99.90;;;;;;5070544;28;20267;-72
2021/03/30 00:50:15;;;;;;;24.50;14.93;;;11.20;99.90;;;;;;5071186;28;20219;-71
2021/03/30 00:52:51;;;;;;;16.63;11.93;;;11.20;99.90;;;;;;5070668;28;20200;-69
2021/03/30 00:55:19;;;;;;;24.60;13.35;;;11.10;99.90;;;;;;5067850;28;20224;-73
2021/03/30 00:57:46;;;;;;;20.95;14.68;;;11.20;99.90;;;;;;5067418;28;20257;-76
2021/03/30 01:00:15;;;;;;;17.30;14.32;;;11.10;99.90;;;;;;5064715;28;20203;-73
2021/03/30 01:02:47;;;;;;;23.10;14.50;;;11.00;99.90;;;;;;5073544;28;20211;-73
2021/03/30 01:05:15;;;;;;;16.30;13.40;;;10.90;99.90;;;;;;5071142;28;20660;-75
2021/03/30 01:07:58;;;;;;;17.73;14.25;;;10.90;99.90;;;;;;5073077;28;20603;-73
2021/03/30 01:10:44;;;;;;;22.90;14.00;;;10.90;99.90;;;;;;5066890;28;20207;-74
2021/03/30 01:14:01;;;;;;;15.93;11.32;;;10.90;99.90;;;;;;5068399;28;20529;-73
2021/03/30 01:16:38;;;;;;;22.95;13.70;;;10.90;99.90;;;;;;5071619;28;20230;-76
2021/03/30 01:19:17;;;;;;;18.13;12.80;;;10.90;99.90;;;;;;5060802;28;20269;-73
2021/03/30 01:22:45;;;;;;;19.05;14.77;;;11.00;99.90;;;;;;5067238;28;20260;-77
2021/03/30 01:25:25;;;;;;;20.73;12.60;;;11.00;99.90;;;;;;5051656;28;20224;-73
2021/03/30 01:28:17;;;;;;;15.77;11.52;;;11.00;99.90;;;;;;5062987;28;20226;-74
2021/03/30 01:30:46;;;;;;;15.75;13.10;;;11.10;99.90;;;;;;5067245;28;20204;-74
2021/03/30 01:33:20;;;;;;;20.55;13.77;;;11.10;99.90;;;;;;5069404;28;20206;-73
2021/03/30 01:35:49;;;;;;;17.17;13.82;;;11.10;99.90;;;;;;5072447;28;20254;-74
2021/03/30 01:38:18;;;;;;;14.18;12.23;;;11.00;99.90;;;;;;5072067;28;20195;-75
2021/03/30 01:40:45;;;;;;;18.42;13.35;;;11.00;99.90;;;;;;5072807;28;20205;-74
2021/03/30 01:43:15;;;;;;;16.23;12.32;;;10.90;99.90;;;;;;5070405;28;20294;-73
2021/03/30 01:45:44;;;;;;;18.95;12.00;;;10.90;99.90;;;;;;5068429;28;20223;-74
2021/03/30 01:48:20;;;;;;;20.10;12.15;;;10.90;99.90;;;;;;5066331;28;20245;-75
2021/03/30 01:50:47;;;;;;;20.98;12.35;;;10.90;99.90;;;;;;5068799;28;20198;-74
2021/03/30 01:53:42;;;;;;;16.25;12.10;;;10.80;99.90;;;;;;5062722;28;20192;-71
2021/03/30 01:56:11;;;;;;;16.05;12.88;;;10.80;99.90;;;;;;5064203;28;20226;-74
2021/03/30 01:58:41;;;;;;;18.52;13.50;;;10.70;99.90;;;;;;5060263;28;20211;-72
2021/03/30 02:01:13;;;;;;;16.80;12.35;;;10.60;99.90;;;;;;5066866;28;20195;-72
2021/03/30 02:03:41;;;;;;;22.77;14.65;;;10.60;99.90;;;;;;5066099;28;20233;-70
2021/03/30 02:06:09;;;;;;;17.27;12.63;;;10.50;99.90;;;;;;5068959;28;20257;-69
2021/03/30 02:08:37;;;;;;;15.57;11.20;;;10.50;99.90;;;;;;5070858;28;20199;-70
2021/03/30 02:11:04;;;;;;;15.32;13.00;;;10.50;99.90;;;;;;5061015;28;20201;-74
2021/03/30 02:13:38;;;;;;;19.33;13.85;;;10.50;99.90;;;;;;5059619;28;20573;-73
2021/03/30 02:16:12;;;;;;;22.92;12.88;;;10.40;99.90;;;;;;5065558;28;20225;-75
2021/03/30 02:18:44;;;;;;;22.45;12.23;;;10.40;99.90;;;;;;5068140;28;20613;-71
2021/03/30 02:21:16;;;;;;;17.02;12.63;;;10.40;99.90;;;;;;5065119;28;20223;-73
2021/03/30 02:23:44;;;;;;;15.65;13.35;;;10.40;99.90;;;;;;5071983;28;20219;-73
2021/03/30 02:26:13;;;;;;;18.85;13.50;;;10.40;99.90;;;;;;5064812;28;20231;-73
2021/03/30 02:28:46;;;;;;;21.05;12.80;;;10.40;99.90;;;;;;5076301;28;20209;-74
2021/03/30 02:31:17;;;;;;;23.35;12.65;;;10.40;99.90;;;;;;5059256;28;20542;-69
2021/03/30 02:33:47;;;;;;;17.98;13.18;;;10.40;99.90;;;;;;5071968;28;20645;-74
2021/03/30 02:36:14;;;;;;;15.27;13.00;;;10.40;99.90;;;;;;5063167;28;20565;-73
2021/03/30 02:38:43;;;;;;;17.67;13.38;;;10.40;99.90;;;;;;5069873;28;20260;-72
2021/03/30 02:41:10;;;;;;;14.60;12.10;;;10.40;99.90;;;;;;5063723;28;20559;-74
2021/03/30 02:43:37;;;;;;;15.02;12.50;;;10.50;99.90;;;;;;5071323;28;20222;-72
2021/03/30 02:46:05;;;;;;;19.15;13.15;;;10.50;99.90;;;;;;5065561;28;20234;-73
2021/03/30 02:48:38;;;;;;;18.48;14.13;;;10.50;99.90;;;;;;5062344;28;20215;-71
2021/03/30 02:51:06;;;;;;;18.48;13.30;;;10.50;99.90;;;;;;5073087;28;20562;-70
2021/03/30 02:53:33;;;;;;;15.52;11.48;;;10.50;99.90;;;;;;5073756;28;20202;-70
2021/03/30 02:56:01;;;;;;;17.77;12.55;;;10.60;99.90;;;;;;5064978;28;20219;-70
2021/03/30 02:58:29;;;;;;;16.08;13.50;;;10.60;99.90;;;;;;5070688;28;20226;-70
2021/03/30 03:00:59;;;;;;;17.83;11.88;;;10.70;99.90;;;;;;5068557;28;20209;-73
2021/03/30 03:03:29;;;;;;;16.95;11.93;;;10.60;99.90;;;;;;5069332;28;20234;-71
2021/03/30 03:06:01;;;;;;;13.73;12.18;;;10.70;99.90;;;;;;5062051;28;20265;-74
2021/03/30 03:08:29;;;;;;;12.13;10.88;;;10.70;99.90;;;;;;5072234;28;20210;-72
2021/03/30 03:10:57;;;;;;;16.55;11.57;;;10.80;99.90;;;;;;5066863;28;20215;-75
2021/03/30 03:13:25;;;;;;;14.88;12.98;;;10.80;99.90;;;;;;5062813;28;20204;-71
2021/03/30 03:15:52;;;;;;;16.50;12.52;;;10.80;99.90;;;;;;5063706;28;20306;-72
2021/03/30 03:18:20;;;;;;;24.08;12.68;;;10.90;99.90;;;;;;5057667;28;20200;-72
2021/03/30 03:20:48;;;;;;;16.88;13.25;;;10.80;99.90;;;;;;5068816;28;20203;-72
2021/03/30 03:23:16;;;;;;;19.25;12.23;;;10.70;99.90;;;;;;5075576;28;20227;-72
2021/03/30 03:25:44;;;;;;;16.38;10.90;;;10.60;99.90;;;;;;5061545;28;20689;-73
2021/03/30 03:28:11;;;;;;;16.63;12.85;;;10.60;99.90;;;;;;5064858;28;20230;-73
2021/03/30 03:30:41;;;;;;;16.27;12.55;;;10.60;99.90;;;;;;5071647;28;20217;-71
2021/03/30 03:33:09;;;;;;;20.02;13.63;;;10.70;99.90;;;;;;5071788;28;20214;-72
2021/03/30 03:35:36;;;;;;;22.05;12.60;;;10.60;99.90;;;;;;5059517;28;20250;-73
2021/03/30 03:38:04;;;;;;;16.10;12.27;;;10.60;99.90;;;;;;5065369;28;20207;-72
2021/03/30 03:40:33;;;;;;;19.25;12.35;;;10.50;99.90;;;;;;5068380;28;20257;-70
2021/03/30 03:43:00;;;;;;;17.92;13.18;;;10.40;99.90;;;;;;5063936;28;20225;-73
2021/03/30 03:45:26;;;;;;;15.60;12.10;;;10.40;99.90;;;;;;5054079;28;20220;-75
2021/03/30 03:47:53;;;;;;;21.10;12.00;;;10.30;99.90;;;;;;5062739;28;20203;-71
2021/03/30 03:50:20;;;;;;;18.63;11.90;;;10.30;99.90;;;;;;5073198;28;20210;-73
2021/03/30 03:52:51;;;;;;;13.27;11.88;;;10.30;99.90;;;;;;5067814;28;20575;-73
2021/03/30 03:55:21;;;;;;;20.48;11.98;;;10.30;99.90;;;;;;5073455;28;20321;-73
2021/03/30 03:57:52;;;;;;;12.80;11.43;;;10.30;99.90;;;;;;5074465;28;20237;-71
2021/03/30 04:00:21;;;;;;;16.00;12.00;;;10.30;99.90;;;;;;5066325;28;20555;-75
2021/03/30 04:02:53;;;;;;;16.35;11.48;;;10.30;99.90;;;;;;5066989;28;20227;-69
2021/03/30 04:05:22;;;;;;;15.30;10.95;;;10.30;99.90;;;;;;5062310;28;20227;-70
2021/03/30 04:07:53;;;;;;;15.45;10.98;;;10.20;99.90;;;;;;5077144;28;20222;-73
2021/03/30 04:10:23;;;;;;;18.13;12.30;;;10.20;99.90;;;;;;5072471;28;20310;-71
2021/03/30 04:12:51;;;;;;;15.80;10.48;;;10.20;99.90;;;;;;5067305;28;20195;-71
2021/03/30 04:15:21;;;;;;;15.18;11.82;;;10.30;99.90;;;;;;5078060;28;20308;-75
2021/03/30 04:17:48;;;;;;;16.52;12.13;;;10.30;99.90;;;;;;5074785;28;20235;-72
2021/03/30 04:20:17;;;;;;;14.88;10.85;;;10.30;99.90;;;;;;5070201;28;20208;-71
2021/03/30 04:22:45;;;;;;;13.02;11.00;;;10.30;99.90;;;;;;5066422;28;20267;-74
2021/03/30 04:25:12;;;;;;;21.70;12.52;;;10.30;99.90;;;;;;5064261;28;20226;-75
2021/03/30 04:27:39;;;;;;;14.93;11.48;;;10.20;99.90;;;;;;5072667;28;20203;-74
2021/03/30 04:30:08;;;;;;;16.50;12.00;;;10.20;99.90;;;;;;5066456;28;20609;-70
2021/03/30 04:32:35;;;;;;;12.25;10.02;;;10.20;99.90;;;;;;5073343;28;20203;-73
2021/03/30 04:35:02;;;;;;;16.13;12.35;;;10.30;99.90;;;;;;5066797;28;20256;-72
2021/03/30 04:37:28;;;;;;;16.67;12.63;;;10.40;99.90;;;;;;5061512;28;20444;-72
2021/03/30 04:39:55;;;;;;;15.45;11.07;;;10.30;99.90;;;;;;5071731;28;20616;-73
2021/03/30 04:42:22;;;;;;;20.02;11.38;;;10.30;99.90;;;;;;5069579;28;20544;-70
2021/03/30 04:44:49;;;;;;;14.32;11.80;;;10.30;99.90;;;;;;5072553;28;20198;-72
2021/03/30 04:47:18;;;;;;;16.90;12.13;;;10.30;99.90;;;;;;5069158;28;20269;-74
2021/03/30 04:49:44;;;;;;;14.68;11.15;;;10.30;99.90;;;;;;5069097;28;20625;-73
2021/03/30 04:52:11;;;;;;;14.60;11.40;;;10.20;99.90;;;;;;5062072;28;20206;-72
2021/03/30 04:54:39;;;;;;;16.10;10.77;;;10.20;99.90;;;;;;5055283;28;20630;-73
2021/03/30 04:57:07;;;;;;;16.75;10.93;;;10.20;99.90;;;;;;5062423;28;20627;-70
2021/03/30 04:59:34;;;;;;;12.80;11.18;;;10.20;99.90;;;;;;5066981;28;20246;-72
2021/03/30 05:02:00;;;;;;;13.82;11.40;;;10.20;99.90;;;;;;5059476;28;20243;-73
2021/03/30 05:04:28;;;;;;;14.75;10.77;;;10.20;99.90;;;;;;5073519;28;20227;-72
2021/03/30 05:06:55;;;;;;;17.25;11.00;;;10.20;99.90;;;;;;5064204;28;20225;-75
2021/03/30 05:09:22;;;;;;;20.08;11.45;;;10.20;99.90;;;;;;5061060;28;20680;-70
2021/03/30 05:11:48;;;;;;;17.67;11.63;;;10.20;99.90;;;;;;5070354;28;20210;-75
2021/03/30 05:14:15;;;;;;;15.13;10.60;;;10.20;99.90;;;;;;5061722;28;20208;-74
2021/03/30 05:16:42;;;;;;;23.45;13.52;;;10.30;99.90;;;;;;5061585;28;20227;-69
2021/03/30 05:19:09;;;;;;;15.65;11.85;;;10.30;99.90;;;;;;5072344;28;20229;-73
2021/03/30 05:21:36;;;;;;;16.52;11.85;;;10.30;99.90;;;;;;5069757;28;20215;-73
2021/03/30 05:24:03;;;;;;;13.80;12.20;;;10.40;99.90;;;;;;5087227;28;20207;-70
2021/03/30 05:26:30;;;;;;;14.73;10.45;;;10.50;99.90;;;;;;5074035;28;20292;-74
2021/03/30 05:28:57;;;;;;;19.08;11.52;;;10.50;99.90;;;;;;5061885;28;20202;-75
2021/03/30 05:31:24;;;;;;;16.25;10.90;;;10.60;99.90;;;;;;5072845;28;20199;-74
2021/03/30 05:33:50;;;;;;;17.55;11.60;;;10.60;99.90;;;;;;5071942;28;20697;-70
2021/03/30 05:36:17;;;;;;;18.55;11.50;;;10.70;99.90;;;;;;5055134;28;20223;-71
2021/03/30 05:38:45;;;;;;;21.67;11.25;;;10.80;99.90;;;;;;5054240;28;20656;-71
2021/03/30 05:41:12;;;;;;;21.52;11.68;;;10.90;99.90;;;;;;5063578;28;20207;-71
2021/03/30 05:43:40;;;;;;;17.25;11.43;;;10.90;99.90;;;;;;5066205;28;20227;-72
2021/03/30 05:46:08;;;;;;;17.08;11.40;;;10.90;99.90;;;;;;5060697;28;20244;-75
2021/03/30 05:48:35;;;;;;;17.85;10.77;;;10.90;99.90;;;;;;5063675;28;20233;-73
2021/03/30 05:51:02;;;;;;;13.98;11.60;;;11.00;99.90;;;;;;5071967;28;20206;-76
2021/03/30 05:53:32;;;;;;;17.15;11.50;;;11.00;99.90;;;;;;5068944;28;20221;-72
2021/03/30 05:56:02;;;;;;;16.50;12.73;;;11.10;99.90;;;;;;5069705;28;20231;-73
2021/03/30 05:58:33;;;;;;;17.20;13.48;;;11.20;99.90;;;;;;5074371;28;20209;-70
2021/03/30 06:01:03;;;;;;;20.63;11.65;;;11.50;99.90;;;;;;5072012;28;20265;-72
2021/03/30 06:03:32;;;;;;;20.75;11.35;;;11.70;99.20;;;;;;5065231;28;20752;-73
2021/03/30 06:06:00;;;;;;;14.02;12.10;;;12.10;98.50;;;;;;5060757;28;20226;-73
2021/03/30 06:08:29;;;;;;;18.20;12.43;;;12.60;97.90;;;;;;5066426;28;20209;-72
2021/03/30 06:10:58;;;;;;;16.88;10.52;;;13.00;96.20;;;;;;5059212;28;20337;-69
2021/03/30 06:13:51;;;;;;;12.05;10.57;;;13.50;95.50;;;;;;5065713;28;20206;-73
2021/03/30 06:16:27;;;;;;;14.38;10.70;;;14.40;94.00;;;;;;5066603;28;20229;-72
2021/03/30 06:19:09;;;;;;;15.00;10.95;;;15.20;92.20;;;;;;5062753;28;20198;-72
2021/03/30 06:21:39;;;;;;;25.40;10.77;;;15.80;90.60;;;;;;5067625;28;20192;-71
2021/03/30 06:24:28;;;;;;;14.63;11.50;;;16.40;89.10;;;;;;5070712;28;20225;-71
2021/03/30 06:26:56;;;;;;;18.00;11.97;;;17.00;86.40;;;;;;5067018;28;20465;-73
2021/03/30 06:29:34;;;;;;;11.20;9.53;;;17.50;85.20;;;;;;5067020;28;20457;-73
2021/03/30 06:32:03;;;;;;;12.27;10.23;;;18.30;82.90;;;;;;5065663;28;20452;-72
2021/03/30 06:34:30;;;;;;;22.60;10.93;;;18.40;79.90;;;;;;5070460;28;20445;-71
2021/03/30 06:36:57;;;;;;;17.17;10.77;;;18.60;79.10;;;;;;5057080;28;20467;-71
2021/03/30 06:39:42;;;;;;;12.33;10.77;;;18.60;78.70;;;;;;5065422;28;20467;-72
2021/03/30 06:42:11;;;;;;;14.63;11.73;;;18.80;77.50;;;;;;5062757;28;20443;-70
2021/03/30 06:44:40;;;;;;;15.93;11.23;;;19.20;77.50;;;;;;5060237;28;20976;-72
2021/03/30 06:47:10;;;;;;;14.43;10.00;;;19.70;76.30;;;;;;5062882;28;20466;-69
2021/03/30 06:49:38;;;;;;;20.10;10.47;;;20.00;75.10;;;;;;5070279;28;20463;-71
2021/03/30 06:52:16;;;;;;;13.30;10.00;;;20.50;76.70;;;;;;5059810;28;20540;-71
2021/03/30 06:55:00;;;;;;;16.57;10.60;;;20.70;73.80;;;;;;5053743;28;20861;-72
2021/03/30 06:57:41;;;;;;;13.70;9.37;;;21.10;73.70;;;;;;5067445;28;20861;-70
2021/03/30 07:00:12;;;;;;;15.77;11.40;;;21.50;70.80;;;;;;5064918;28;20998;-69
2021/03/30 07:02:45;;;;;;;12.87;9.23;;;21.10;69.20;;;;;;5065306;28;20453;-72
2021/03/30 07:05:23;;;;;;;13.27;10.93;;;20.80;69.90;;;;;;5067476;28;20467;-71
2021/03/30 07:07:54;;;;;;;14.23;10.70;;;21.00;70.10;;;;;;5064895;28;20822;-70
2021/03/30 07:10:22;;;;;;;20.83;11.60;;;20.80;70.50;;;;;;5061023;28;20517;-72
2021/03/30 07:12:51;;;;;;;12.33;9.80;;;20.70;69.80;;;;;;5061962;28;20452;-71
2021/03/30 07:15:20;;;;;;;12.50;10.43;;;20.20;70.00;;;;;;5063502;28;20469;-72
2021/03/30 07:17:58;;;;;;;15.00;11.07;;;20.30;71.60;;;;;;5062103;28;20443;-72
2021/03/30 07:20:26;;;;;;;12.50;10.27;;;20.20;71.40;;;;;;5064378;28;20446;-69
2021/03/30 07:22:55;;;;;;;14.77;10.13;;;20.30;70.80;;;;;;5068709;28;20481;-70
2021/03/30 07:25:23;;;;;;;12.73;10.77;;;20.40;72.20;;;;;;5063135;28;20984;-69
2021/03/30 07:27:54;;;;;;;14.57;11.17;;;21.00;71.20;;;;;;5072759;28;20536;-69
2021/03/30 07:30:23;;;;;;;14.60;10.10;;;21.30;70.40;;;;;;5074220;28;20444;-72
2021/03/30 07:33:03;;;;;;;21.97;11.10;;;21.70;68.80;;;;;;5064612;28;20437;-73
2021/03/30 07:35:31;;;;;;;14.20;10.30;;;21.60;69.40;;;;;;5073371;28;20456;-71
2021/03/30 07:38:05;;;;;;;19.00;10.57;;;22.00;68.10;;;;;;5066618;28;20449;-72
2021/03/30 07:40:32;;;;;;;13.30;10.07;;;21.70;68.50;;;;;;5070666;28;20445;-72
2021/03/30 07:42:59;;;;;;;12.83;9.30;;;21.70;68.60;;;;;;5071192;28;20492;-69
2021/03/30 07:45:29;;;;;;;14.73;10.10;;;21.50;69.10;;;;;;5061661;28;20470;-71
2021/03/30 07:47:58;;;;;;;19.90;12.00;;;21.60;69.90;;;;;;5069356;28;20498;-72
2021/03/30 07:50:46;;;;;;;14.53;10.23;;;22.30;69.10;;;;;;5071313;28;20456;-70
2021/03/30 07:53:40;;;;;;;11.40;9.40;;;22.50;68.50;;;;;;5071838;28;20437;-70
2021/03/30 07:56:09;;;;;;;12.40;9.87;;;22.80;67.80;;;;;;5072801;28;20468;-71
2021/03/30 07:58:40;;;;;;;13.77;10.17;;;23.10;67.00;;;;;;5072559;28;20505;-71
2021/03/30 08:01:09;;;;;;;10.37;8.43;;;23.30;66.90;;;;;;5075233;28;20931;-71
2021/03/30 08:03:36;;;;;;;13.47;9.10;;;23.10;67.10;;;;;;5070928;28;20477;-70
2021/03/30 08:06:17;;;;;;;14.07;9.10;;;23.60;68.00;;;;;;5071321;28;20480;-70
2021/03/30 08:09:06;;;;;;;14.87;9.30;;;24.20;67.60;;;;;;5070903;28;20942;-71
2021/03/30 08:11:51;;;;;;;15.63;10.00;;;24.10;67.40;;;;;;5068889;28;20449;-73
2021/03/30 08:14:40;;;;;;;12.80;9.57;;;24.20;65.30;;;;;;5061167;28;20442;-72
2021/03/30 08:17:11;;;;;;;16.40;9.97;;;24.30;65.50;;;;;;5075700;22;20496;-70
2021/03/30 08:20:06;;;;;;;13.10;8.67;;;24.40;66.20;;;;;;5051299;28;20465;-71
2021/03/30 08:23:03;;;;;;;10.63;8.30;;;24.30;67.10;;;;;;5035440;28;20461;-70
2021/03/30 08:25:39;;;;;;;16.10;9.63;;;24.00;67.80;;;;;;5043372;28;20466;-70
2021/03/30 08:28:07;;;;;;;12.47;8.87;;;24.70;67.60;;;;;;5027997;28;20454;-70
2021/03/30 08:30:58;;;;;;;11.50;8.70;;;25.10;66.90;;;;;;5058132;28;20453;-73
2021/03/30 08:33:33;;;;;;;15.13;9.30;;;24.60;66.60;;;;;;5035086;28;20454;-69
2021/03/30 08:36:25;;;;;;;15.60;9.00;;;24.90;67.80;;;;;;5064049;28;20464;-71
2021/03/30 08:38:55;;;;;;;11.37;8.57;;;25.70;67.60;;;;;;5058850;28;20534;-70
2021/03/30 08:42:00;;;;;;;9.20;7.80;;;26.00;65.90;;;;;;5041739;28;20454;-71
2021/03/30 08:44:40;;;;;;;20.13;8.43;;;25.70;66.50;;;;;;5053119;28;20489;-72
2021/03/30 08:47:07;;;;;;;10.77;7.93;;;25.80;66.80;;;;;;5050654;28;20562;-70
2021/03/30 08:49:38;;;;;;;10.57;7.67;;;25.50;67.20;;;;;;5048307;28;20511;-72
2021/03/30 08:52:07;;;;;;;7.80;6.33;;;26.50;67.50;;;;;;5053099;28;20434;-71
2021/03/30 08:54:37;;;;;;;9.83;7.20;;;25.20;67.00;;;;;;5053275;28;20442;-72
2021/03/30 08:57:06;;;;;;;10.90;7.63;;;25.50;70.00;;;;;;5044229;28;20956;-72
2021/03/30 08:59:33;;;;;;;10.80;6.97;;;25.40;69.60;;;;;;5050588;28;20446;-73
2021/03/30 09:02:06;;;;;;;10.00;7.37;;;26.40;69.20;;;;;;5052053;28;20446;-73
2021/03/30 09:04:36;;;;;;;11.40;6.77;;;27.10;67.40;;;;;;5052791;28;20514;-71
2021/03/30 09:07:03;;;;;;;10.57;6.40;;;27.70;65.70;;;;;;5049572;28;20552;-72
2021/03/30 09:09:34;;;;;;;11.93;6.67;;;28.10;64.30;;;;;;5045466;28;20450;-73
2021/03/30 09:12:02;;;;;;;7.03;6.27;;;28.40;63.90;;;;;;5050054;28;20454;-71
2021/03/30 09:14:30;;;;;;;8.13;5.80;;;28.70;63.20;;;;;;5050967;28;20450;-73
2021/03/30 09:17:08;;;;;;;9.83;7.37;;;27.80;63.20;;;;;;5051985;28;20485;-73
2021/03/30 09:19:44;;;;;;;13.90;6.50;;;26.20;65.70;;;;;;5045826;28;20442;-71
2021/03/30 09:22:20;;;;;;;12.67;6.77;;;27.00;66.50;;;;;;5030095;28;20448;-71
2021/03/30 09:25:04;;;;;;;7.87;6.30;;;27.60;64.60;;;;;;5028836;28;20496;-72
2021/03/30 09:27:32;;;;;;;11.43;6.17;;;27.90;64.30;;;;;;5050602;28;20454;-70
2021/03/30 09:30:02;;;;;;;8.93;7.47;;;27.70;63.00;;;;;;5051786;28;20446;-72
2021/03/30 09:32:31;;;;;;;11.93;7.40;;;26.00;65.30;;;;;;5041521;28;20517;-72
2021/03/30 09:35:07;;;;;;;8.27;6.80;;;26.10;67.10;;;;;;5051472;28;20460;-71
2021/03/30 09:37:38;;;;;;;14.10;7.13;;;25.70;66.90;;;;;;5047491;28;20457;-72
2021/03/30 09:40:07;;;;;;;9.70;6.77;;;25.20;68.60;;;;;;5051135;28;20501;-70
2021/03/30 09:42:35;;;;;;;10.10;6.10;;;26.00;68.50;;;;;;5050683;28;20478;-72
2021/03/30 09:45:02;;;;;;;11.53;7.13;;;25.30;67.40;;;;;;5048273;28;20519;-70
2021/03/30 09:47:30;;;;;;;12.10;7.70;;;25.30;67.90;;;;;;5041860;28;20454;-72
2021/03/30 09:50:00;;;;;;;12.40;6.80;;;24.80;68.80;;;;;;5049113;28;20446;-70
2021/03/30 09:52:30;;;;;;;11.63;6.70;;;25.40;70.00;;;;;;5052197;28;20441;-72
2021/03/30 09:54:57;;;;;;;8.67;6.80;;;26.20;68.40;;;;;;5049179;28;20442;-70
2021/03/30 09:57:26;;;;;;;15.53;7.13;;;26.00;68.00;;;;;;5043944;28;20446;-71
2021/03/30 09:59:53;;;;;;;12.63;6.90;;;25.60;67.40;;;;;;5044145;28;20542;-70
2021/03/30 10:02:21;;;;;;;10.83;6.77;;;25.40;68.50;;;;;;5048798;28;20958;-71
2021/03/30 10:04:53;;;;;;;9.80;5.63;;;25.10;68.90;;;;;;5051840;28;20485;-73
2021/03/30 10:07:21;;;;;;;9.93;5.93;;;25.40;68.60;;;;;;5051827;28;20485;-72
2021/03/30 10:10:03;;;;;;;10.80;6.90;;;25.70;68.10;;;;;;5043764;28;20905;-74
2021/03/30 10:12:36;;;;;;;11.47;6.33;;;25.70;67.30;;;;;;5040111;28;20447;-72
2021/03/30 10:15:05;;;;;;;9.23;5.83;;;25.80;66.90;;;;;;5022686;28;20442;-73
2021/03/30 10:17:32;;;;;;;9.30;6.67;;;26.00;67.10;;;;;;5049917;28;20496;-73
2021/03/30 10:20:00;;;;;;;10.23;7.10;;;26.80;66.20;;;;;;5041763;28;20454;-70
2021/03/30 10:22:31;;;;;;;9.60;6.13;;;26.20;66.50;;;;;;5050026;28;20459;-69
2021/03/30 10:25:17;;;;;;;8.03;5.53;;;26.10;66.50;;;;;;5042458;28;20886;-72
2021/03/30 10:27:52;;;;;;;10.93;6.57;;;26.40;66.50;;;;;;5051669;28;20437;-69
2021/03/30 10:30:28;;;;;;;8.40;5.80;;;26.00;65.60;;;;;;5031469;28;20450;-71
2021/03/30 10:32:57;;;;;;;8.63;5.90;;;24.50;65.80;;;;;;5051031;28;20446;-72
2021/03/30 10:35:26;;;;;;;7.50;6.40;;;24.50;67.80;;;;;;5051689;28;20473;-72
2021/03/30 10:37:53;;;;;;;9.50;5.40;;;24.60;68.00;;;;;;5049512;28;20458;-71
2021/03/30 10:40:28;;;;;;;9.10;6.20;;;24.10;68.30;;;;;;5042929;28;20442;-73
2021/03/30 10:42:55;;;;;;;10.20;6.43;;;23.80;69.30;;;;;;5044380;28;20491;-71
2021/03/30 10:45:29;;;;;;;13.03;6.67;;;23.20;71.50;;;;;;5037231;28;20467;-69
2021/03/30 10:48:00;;;;;;;14.97;6.70;;;22.90;72.30;;;;;;5039289;28;20450;-72
2021/03/30 10:50:27;;;;;;;10.00;6.40;;;23.00;72.70;;;;;;5051660;28;20929;-70
2021/03/30 10:52:54;;;;;;;11.10;7.47;;;22.80;73.30;;;;;;5051143;28;20481;-72
2021/03/30 10:55:22;;;;;;;13.40;7.90;;;22.90;73.80;;;;;;5052176;28;20485;-73
2021/03/30 10:57:48;;;;;;;8.27;6.60;;;22.50;73.70;;;;;;5049336;28;20459;-72
2021/03/30 11:00:17;;;;;;;11.00;7.60;;;21.90;73.90;;;;;;5048945;28;20480;-72
2021/03/30 11:02:45;;;;;;;9.63;7.17;;;22.10;75.30;;;;;;5066001;28;20463;-72
2021/03/30 11:05:18;;;;;;;7.83;7.03;;;22.10;75.50;;;;;;5052133;28;20557;-72
2021/03/30 11:07:44;;;;;;;7.03;6.33;;;22.20;76.00;;;;;;5055684;28;20444;-69
2021/03/30 11:10:12;;;;;;;7.93;5.70;;;22.20;74.20;;;;;;5051548;28;20453;-70
2021/03/30 11:12:40;;;;;;;8.50;6.33;;;22.20;74.00;;;;;;5055277;28;20543;-71
2021/03/30 11:15:09;;;;;;;11.67;5.47;;;21.70;74.20;;;;;;5051335;28;20474;-73
2021/03/30 11:17:36;;;;;;;9.30;5.90;;;21.90;73.50;;;;;;5054265;28;20511;-69
2021/03/30 11:20:04;;;;;;;9.40;6.10;;;21.80;72.40;;;;;;5053930;28;20547;-70
2021/03/30 11:22:30;;;;;;;8.63;6.10;;;21.80;71.40;;;;;;5053537;28;20454;-71
2021/03/30 11:24:59;;;;;;;9.50;5.90;;;21.70;71.40;;;;;;5055000;28;20484;-69
2021/03/30 11:27:27;;;;;;;9.67;5.87;;;21.40;71.00;;;;;;5054147;28;20495;-69
2021/03/30 11:30:03;;;;;;;9.33;5.63;;;21.60;72.30;;;;;;5038635;28;20460;-71
2021/03/30 11:32:34;;;;;;;8.70;5.53;;;21.50;71.10;;;;;;5039608;28;20974;-71
2021/03/30 11:35:02;;;;;;;10.40;6.73;;;21.60;72.20;;;;;;5053729;28;20453;-72
2021/03/30 11:37:41;;;;;;;12.57;7.10;;;21.80;72.60;;;;;;5054123;28;20856;-72
2021/03/30 11:40:09;;;;;;;12.30;8.10;;;22.00;74.20;;;;;;5033641;28;20962;-72
2021/03/30 11:42:36;;;;;;;12.77;8.60;;;22.30;73.70;;;;;;5048247;28;20449;-72
2021/03/30 11:45:04;;;;;;;14.40;10.13;;;22.20;73.90;;;;;;5053681;28;20487;-70
2021/03/30 11:47:31;;;;;;;11.30;9.23;;;22.30;74.10;;;;;;5053826;28;20523;-70
2021/03/30 11:49:57;;;;;;;11.60;9.90;;;22.40;74.10;;;;;;5054094;28;20434;-69
2021/03/30 11:52:24;;;;;;;14.07;10.10;;;22.20;73.50;;;;;;5051203;28;20461;-72
2021/03/30 11:54:51;;;;;;;16.40;9.57;;;21.90;74.20;;;;;;5053476;28;20477;-72
2021/03/30 11:57:19;;;;;;;14.63;10.37;;;21.90;73.90;;;;;;5050842;28;20452;-71
2021/03/30 11:59:46;;;;;;;13.73;8.83;;;21.70;74.10;;;;;;5047603;28;20448;-74
2021/03/30 12:02:14;;;;;;;14.50;10.57;;;21.90;73.00;;;;;;5052803;28;20453;-72
2021/03/30 12:04:40;;;;;;;15.47;9.67;;;22.30;73.50;;;;;;5052612;28;21001;-72
2021/03/30 12:07:07;;;;;;;15.10;8.80;;;22.60;72.80;;;;;;5052912;28;21002;-72
2021/03/30 12:09:33;;;;;;;12.00;7.97;;;22.40;69.20;;;;;;5048113;28;20451;-70
2021/03/30 12:12:00;;;;;;;13.70;8.23;;;22.00;68.20;;;;;;5052114;28;20887;-70
2021/03/30 12:14:27;;;;;;;13.57;8.40;;;22.10;67.70;;;;;;5053846;28;20954;-69
2021/03/30 12:16:53;;;;;;;9.87;7.20;;;22.20;67.50;;;;;;5047218;28;20479;-69
2021/03/30 12:19:22;;;;;;;9.60;7.90;;;22.30;66.50;;;;;;5052928;28;20450;-74
2021/03/30 12:21:52;;;;;;;13.53;8.47;;;22.40;67.00;;;;;;5053955;28;20861;-73
2021/03/30 12:24:18;;;;;;;13.33;9.30;;;22.40;67.50;;;;;;5050136;28;20536;-70
2021/03/30 12:26:45;;;;;;;16.83;9.53;;;22.40;67.70;;;;;;5048585;28;20513;-70
2021/03/30 12:29:13;;;;;;;12.17;9.00;;;22.10;67.20;;;;;;5047674;28;20441;-69
2021/03/30 12:31:39;;;;;;;16.90;8.73;;;22.10;67.70;;;;;;5050765;28;20818;-72
2021/03/30 12:34:07;;;;;;;10.30;8.77;;;22.10;67.60;;;;;;5053201;28;20456;-74
2021/03/30 12:36:34;;;;;;;18.30;9.10;;;21.80;68.50;;;;;;5047872;28;20473;-71
2021/03/30 12:39:01;;;;;;;12.87;8.90;;;21.80;69.50;;;;;;5047444;28;20453;-71
2021/03/30 12:41:28;;;;;;;12.77;8.50;;;21.90;69.50;;;;;;5052119;28;20536;-71
2021/03/30 12:43:55;;;;;;;13.13;9.70;;;21.90;69.40;;;;;;5047956;28;20474;-71
2021/03/30 12:46:21;;;;;;;12.20;8.90;;;22.00;68.00;;;;;;5046202;28;20473;-71
2021/03/30 12:48:48;;;;;;;10.90;8.53;;;21.90;66.90;;;;;;5044585;28;20443;-70